Time;durP1;ratioP1;P1;durP2;ratioP2;P2;SDS_P1;SDS_P2;PMS_P1;PMS_P2;Temp;Humidity;BMP_temperature;BMP_pressure;BME280_temperature;BME280_humidity;BME280_pressure;Samples;Min_cycle;Max_cycle;Signal;HPM_P1;HPM_P2
2022/02/11 00:08:28;;;;;;;;;;;0.70;99.90;;;;;;4157969;28;20210;-48
2022/02/11 00:10:30;;;;;;;;;;;0.70;99.90;;;;;;4157708;28;19925;-48
2022/02/11 00:12:32;;;;;;;;;;;0.70;99.90;;;;;;4157645;28;19936;-49
2022/02/11 00:14:42;;;;;;;;;;;0.60;99.90;;;;;;4157608;28;19984;-49
2022/02/11 00:16:44;;;;;;;;;;;0.50;99.90;;;;;;4157705;28;19975;-49
2022/02/11 00:18:46;;;;;;;;;;;0.50;99.90;;;;;;4157547;28;19935;-48
2022/02/11 00:20:49;;;;;;;;;;;0.50;99.90;;;;;;4161040;28;19976;-49
2022/02/11 00:22:51;;;;;;;;;;;0.60;99.90;;;;;;4161310;28;19972;-51
2022/02/11 00:24:54;;;;;;;;;;;0.60;99.90;;;;;;4160778;28;20015;-49
2022/02/11 00:33:36;;;;;;;;;;;0.20;99.90;;;;;;4160468;28;19968;-48
2022/02/11 00:36:01;;;;;;;;;;;0.20;99.90;;;;;;4161557;28;19972;-51
2022/02/11 00:38:09;;;;;;;;;;;0.20;99.90;;;;;;4160684;28;19925;-51
2022/02/11 00:40:54;;;;;;;;;;;0.20;99.90;;;;;;4155465;28;19929;-47
2022/02/11 01:05:53;;;;;;;;;;;-0.30;99.90;;;;;;4178168;28;19932;-50
2022/02/11 01:07:55;;;;;;;;;;;-0.40;99.90;;;;;;4175331;28;19925;-51
2022/02/11 01:09:57;;;;;;;;;;;-0.50;99.90;;;;;;4179830;28;20453;-48
2022/02/11 01:12:02;;;;;;;;;;;-0.60;99.90;;;;;;4176559;28;20027;-50
2022/02/11 01:14:04;;;;;;;;;;;-0.60;99.90;;;;;;4177129;28;19979;-51
2022/02/11 01:16:12;;;;;;;;;;;-0.50;99.90;;;;;;4163265;28;20023;-49
2022/02/11 01:18:15;;;;;;;;;;;-0.50;99.90;;;;;;4174616;28;19935;-48
2022/02/11 01:20:41;;;;;;;;;;;-0.40;99.90;;;;;;4177076;28;19951;-48
2022/02/11 01:29:56;;;;;;;;;;;-0.30;99.90;;;;;;4177508;28;19931;-49
2022/02/11 01:32:04;;;;;;;;;;;-0.20;99.90;;;;;;4162422;28;20024;-48
2022/02/11 01:50:32;;;;;;;;;;;-0.30;99.90;;;;;;4178299;28;19928;-51
2022/02/11 01:52:55;;;;;;;;;;;-0.40;99.90;;;;;;4168321;28;19929;-49
2022/02/11 02:02:17;;;;;;;;;;;-0.80;99.90;;;;;;4171222;28;20415;-49
2022/02/11 02:09:25;;;;;;;;;;;-1.00;99.90;;;;;;4162375;28;20083;-50
2022/02/11 02:16:32;;;;;;;;;;;-1.20;99.90;;;;;;4167449;28;19932;-48
2022/02/11 02:27:12;;;;;;;;;;;-1.10;99.90;;;;;;4176406;28;19925;-51
2022/02/11 02:57:47;;;;;;;;;;;-0.80;99.90;;;;;;4174870;28;19929;-48
2022/02/11 03:01:58;;;;;;;;;;;-0.70;99.90;;;;;;4161852;28;19957;-49
2022/02/11 03:51:21;;;;;;;;;;;-0.90;99.90;;;;;;4163323;28;20028;-49
2022/02/11 04:56:03;;;;;;;;;;;-0.40;99.90;;;;;;4175905;28;20483;-48
2022/02/11 05:00:25;;;;;;;;;;;-0.40;99.90;;;;;;4166685;28;19958;-51
2022/02/11 05:02:30;;;;;;;;;;;-0.40;99.90;;;;;;4176727;28;19968;-52
2022/02/11 05:04:34;;;;;;;;;;;-0.50;99.90;;;;;;4173606;28;19928;-49
2022/02/11 05:06:36;;;;;;;;;;;-0.50;99.90;;;;;;4175966;28;20288;-51
2022/02/11 05:08:38;;;;;;;;;;;-0.50;99.90;;;;;;4180313;28;19932;-51
2022/02/11 05:10:40;;;;;;;;;;;-0.50;99.90;;;;;;4175154;28;19936;-51
2022/02/11 05:12:42;;;;;;;;;;;-0.50;99.90;;;;;;4179185;28;20050;-51
2022/02/11 05:14:44;;;;;;;;;;;-0.40;99.90;;;;;;4163569;28;19933;-50
2022/02/11 05:16:46;;;;;;;;;;;-0.40;99.90;;;;;;4175619;28;19944;-51
2022/02/11 05:18:48;;;;;;;;;;;-0.40;99.90;;;;;;4177102;28;19983;-51
2022/02/11 05:20:50;;;;;;;;;;;-0.40;99.90;;;;;;4177790;28;19928;-49
2022/02/11 05:22:51;;;;;;;;;;;-0.40;99.90;;;;;;4169974;28;19932;-51
2022/02/11 05:24:53;;;;;;;;;;;-0.30;99.90;;;;;;4166570;28;19929;-49
2022/02/11 05:26:55;;;;;;;;;;;-0.30;99.90;;;;;;4173253;28;20276;-51
2022/02/11 05:28:57;;;;;;;;;;;-0.20;99.90;;;;;;4174906;28;19935;-50
2022/02/11 05:30:59;;;;;;;;;;;-0.20;99.90;;;;;;4176467;28;20242;-51
2022/02/11 05:33:01;;;;;;;;;;;-0.20;99.90;;;;;;4167319;28;19925;-49
2022/02/11 05:35:03;;;;;;;;;;;-0.20;99.90;;;;;;4169013;28;19995;-49
2022/02/11 05:37:05;;;;;;;;;;;-0.10;99.90;;;;;;4162695;28;19929;-48
2022/02/11 05:39:07;;;;;;;;;;;-0.10;99.90;;;;;;4168800;28;19933;-49
2022/02/11 05:41:10;;;;;;;;;;;0.00;99.90;;;;;;4172474;28;20206;-48
2022/02/11 05:43:12;;;;;;;;;;;0.00;99.90;;;;;;4177774;28;19929;-48
2022/02/11 05:45:14;;;;;;;;;;;0.00;99.90;;;;;;4176282;28;20393;-51
2022/02/11 05:47:16;;;;;;;;;;;0.10;99.90;;;;;;4177120;28;19955;-50
2022/02/11 05:49:18;;;;;;;;;;;0.00;99.90;;;;;;4175844;28;19929;-47
2022/02/11 05:51:19;;;;;;;;;;;-0.10;99.90;;;;;;4176064;28;19928;-51
2022/02/11 05:53:21;;;;;;;;;;;-0.20;99.90;;;;;;4176680;28;19929;-49
2022/02/11 05:55:23;;;;;;;;;;;-0.10;99.90;;;;;;4161546;28;20419;-49
2022/02/11 05:57:25;;;;;;;;;;;-0.10;99.90;;;;;;4173986;28;19933;-48
2022/02/11 05:59:27;;;;;;;;;;;-0.20;99.90;;;;;;4168347;28;19929;-47
2022/02/11 06:01:29;;;;;;;;;;;-0.20;99.90;;;;;;4162689;28;19925;-49
2022/02/11 06:03:31;;;;;;;;;;;-0.30;99.90;;;;;;4168194;28;19975;-51
2022/02/11 06:05:33;;;;;;;;;;;-0.30;99.90;;;;;;4173762;28;19926;-51
2022/02/11 06:07:35;;;;;;;;;;;-0.20;99.90;;;;;;4174134;28;19978;-50
2022/02/11 06:09:37;;;;;;;;;;;-0.20;99.90;;;;;;4176543;28;19994;-51
2022/02/11 06:11:39;;;;;;;;;;;0.00;99.90;;;;;;4169145;28;19938;-47
2022/02/11 06:13:41;;;;;;;;;;;0.00;99.90;;;;;;4173488;28;19925;-51
2022/02/11 06:15:43;;;;;;;;;;;0.10;99.90;;;;;;4174362;28;20584;-51
2022/02/11 06:17:45;;;;;;;;;;;0.20;99.90;;;;;;4169608;28;19983;-49
2022/02/11 06:19:48;;;;;;;;;;;0.20;99.90;;;;;;4175623;28;19929;-48
2022/02/11 06:21:50;;;;;;;;;;;0.20;99.90;;;;;;4173750;28;19990;-52
2022/02/11 06:23:55;;;;;;;;;;;0.10;99.90;;;;;;4171442;28;19948;-52
2022/02/11 06:25:59;;;;;;;;;;;0.00;99.90;;;;;;4176417;28;19929;-53
2022/02/11 06:28:01;;;;;;;;;;;0.00;99.90;;;;;;4170429;28;19928;-53
2022/02/11 06:30:03;;;;;;;;;;;0.00;99.90;;;;;;4172006;28;19933;-52
2022/02/11 06:32:05;;;;;;;;;;;0.00;99.90;;;;;;4178349;28;19928;-53
2022/02/11 06:34:07;;;;;;;;;;;0.10;99.90;;;;;;4172345;28;19948;-53
2022/02/11 06:36:12;;;;;;;;;;;0.20;99.90;;;;;;4176790;28;19929;-53
2022/02/11 06:38:13;;;;;;;;;;;0.30;99.90;;;;;;4178167;28;20413;-53
2022/02/11 06:40:16;;;;;;;;;;;0.30;99.90;;;;;;4173480;28;19932;-53
2022/02/11 06:42:18;;;;;;;;;;;0.20;99.90;;;;;;4176339;28;20392;-53
2022/02/11 06:44:20;;;;;;;;;;;0.20;99.90;;;;;;4177690;28;19925;-52
2022/02/11 06:46:22;;;;;;;;;;;0.20;99.90;;;;;;4173065;28;20408;-53
2022/02/11 06:48:25;;;;;;;;;;;0.30;99.90;;;;;;4161419;28;19975;-53
2022/02/11 06:50:26;;;;;;;;;;;0.40;99.90;;;;;;4175954;28;19929;-51
2022/02/11 06:52:28;;;;;;;;;;;0.40;99.90;;;;;;4175097;28;19951;-51
2022/02/11 06:54:30;;;;;;;;;;;0.50;99.90;;;;;;4174546;28;19933;-53
2022/02/11 06:56:32;;;;;;;;;;;0.50;99.90;;;;;;4165093;28;20447;-52
2022/02/11 06:58:34;;;;;;;;;;;0.40;99.90;;;;;;4167058;28;19928;-52
2022/02/11 07:00:39;;;;;;;;;;;0.50;99.90;;;;;;4173323;28;19975;-52
2022/02/11 07:02:41;;;;;;;;;;;0.60;99.90;;;;;;4175056;28;19925;-53
2022/02/11 07:04:44;;;;;;;;;;;0.70;99.90;;;;;;4168506;28;19975;-54
2022/02/11 07:06:46;;;;;;;;;;;0.70;99.90;;;;;;4178257;28;19928;-53
2022/02/11 07:08:48;;;;;;;;;;;0.80;99.90;;;;;;4173803;28;19929;-52
2022/02/11 07:10:50;;;;;;;;;;;0.90;99.90;;;;;;4176052;28;20904;-53
2022/02/11 07:12:52;;;;;;;;;;;0.90;99.90;;;;;;4161840;28;20526;-52
2022/02/11 07:14:54;;;;;;;;;;;0.90;99.90;;;;;;4173621;28;19931;-52
2022/02/11 07:16:56;;;;;;;;;;;0.80;99.90;;;;;;4175543;28;19925;-53
2022/02/11 07:18:57;;;;;;;;;;;0.80;99.90;;;;;;4176147;28;19935;-53
2022/02/11 07:20:59;;;;;;;;;;;0.80;99.90;;;;;;4173627;28;19978;-52
2022/02/11 07:23:02;;;;;;;;;;;0.80;99.90;;;;;;4176469;28;19925;-53
2022/02/11 07:25:05;;;;;;;;;;;0.80;99.90;;;;;;4175775;28;19944;-53
2022/02/11 07:27:07;;;;;;;;;;;0.80;99.90;;;;;;4169266;28;19931;-53
2022/02/11 07:29:08;;;;;;;;;;;0.90;99.90;;;;;;4162944;28;19935;-52
2022/02/11 07:31:10;;;;;;;;;;;1.00;99.90;;;;;;4164693;28;19975;-52
2022/02/11 07:33:12;;;;;;;;;;;1.10;99.90;;;;;;4171992;28;19929;-54
2022/02/11 07:35:14;;;;;;;;;;;1.20;99.90;;;;;;4176253;28;19982;-53
2022/02/11 07:37:16;;;;;;;;;;;1.10;99.90;;;;;;4174209;28;19929;-53
2022/02/11 07:39:23;;;;;;;;;;;1.10;99.90;;;;;;4173532;28;19924;-54
2022/02/11 07:41:25;;;;;;;;;;;1.10;99.90;;;;;;4173338;28;19951;-54
2022/02/11 07:43:28;;;;;;;;;;;1.10;99.90;;;;;;4168492;28;19925;-52
2022/02/11 07:45:45;;;;;;;;;;;1.20;99.90;;;;;;4172792;28;19936;-54
2022/02/11 07:47:47;;;;;;;;;;;1.30;99.90;;;;;;4165491;28;20003;-53
2022/02/11 07:49:50;;;;;;;;;;;1.30;99.90;;;;;;4166750;28;20485;-53
2022/02/11 07:51:52;;;;;;;;;;;1.30;99.90;;;;;;4173572;28;20514;-53
2022/02/11 07:53:55;;;;;;;;;;;1.30;99.90;;;;;;4164191;28;19938;-52
2022/02/11 07:55:57;;;;;;;;;;;1.30;99.90;;;;;;4170253;28;19925;-53
2022/02/11 07:57:59;;;;;;;;;;;1.30;99.90;;;;;;4173162;28;19955;-53
2022/02/11 08:00:04;;;;;;;;;;;1.30;99.90;;;;;;4164311;28;19929;-53
2022/02/11 08:02:07;;;;;;;;;;;1.40;99.90;;;;;;4172411;28;19987;-54
2022/02/11 08:04:09;;;;;;;;;;;1.40;99.90;;;;;;4167019;28;19936;-53
2022/02/11 08:06:11;;;;;;;;;;;1.50;99.90;;;;;;4163911;28;19929;-53
2022/02/11 08:08:13;;;;;;;;;;;1.50;99.90;;;;;;4174151;28;19925;-53
2022/02/11 08:10:15;;;;;;;;;;;1.50;99.90;;;;;;4171615;28;19929;-53
2022/02/11 08:12:17;;;;;;;;;;;1.60;99.90;;;;;;4169841;28;19925;-54
2022/02/11 08:14:19;;;;;;;;;;;1.70;99.90;;;;;;4176420;28;19929;-53
2022/02/11 08:16:21;;;;;;;;;;;1.80;99.90;;;;;;4169615;28;19929;-53
2022/02/11 08:18:23;;;;;;;;;;;1.90;99.90;;;;;;4170129;28;19925;-53
2022/02/11 08:20:44;;;;;;;;;;;1.90;99.90;;;;;;4176001;28;19982;-54
2022/02/11 08:22:46;;;;;;;;;;;1.90;99.90;;;;;;4167493;28;19929;-53
2022/02/11 08:24:48;;;;;;;;;;;2.00;99.90;;;;;;4164069;28;19929;-54
2022/02/11 08:26:50;;;;;;;;;;;2.10;99.90;;;;;;4176814;28;20381;-53
2022/02/11 08:28:52;;;;;;;;;;;2.20;99.90;;;;;;4172904;28;19924;-53
2022/02/11 08:30:54;;;;;;;;;;;2.30;99.90;;;;;;4174070;28;19957;-54
2022/02/11 08:32:56;;;;;;;;;;;2.30;99.90;;;;;;4163867;28;19926;-53
2022/02/11 08:34:59;;;;;;;;;;;2.40;99.90;;;;;;4170539;28;20397;-52
2022/02/11 08:37:01;;;;;;;;;;;2.50;99.90;;;;;;4173833;28;19933;-53
2022/02/11 08:39:03;;;;;;;;;;;2.70;99.90;;;;;;4174044;28;19925;-52
2022/02/11 08:41:05;;;;;;;;;;;2.90;99.90;;;;;;4176640;28;20324;-54
2022/02/11 08:43:07;;;;;;;;;;;2.90;99.90;;;;;;4179751;28;19925;-53
2022/02/11 08:45:09;;;;;;;;;;;2.90;99.90;;;;;;4168626;28;20653;-54
2022/02/11 08:47:11;;;;;;;;;;;2.90;99.90;;;;;;4169826;28;19932;-53
2022/02/11 08:49:13;;;;;;;;;;;2.80;99.90;;;;;;4165155;28;19929;-52
2022/02/11 08:51:15;;;;;;;;;;;2.90;99.90;;;;;;4178538;28;19931;-53
2022/02/11 08:53:17;;;;;;;;;;;2.90;99.90;;;;;;4176557;28;19932;-53
2022/02/11 08:55:22;;;;;;;;;;;3.00;99.90;;;;;;4180019;28;19933;-53
2022/02/11 08:57:24;;;;;;;;;;;3.10;99.90;;;;;;4177286;28;19925;-54
2022/02/11 08:59:26;;;;;;;;;;;3.10;99.90;;;;;;4176418;28;19952;-53
2022/02/11 09:01:27;;;;;;;;;;;3.30;99.90;;;;;;4179761;28;19979;-54
2022/02/11 09:03:29;;;;;;;;;;;3.40;99.90;;;;;;4177301;28;19928;-54
2022/02/11 09:05:31;;;;;;;;;;;3.50;99.90;;;;;;4176888;28;19936;-53
2022/02/11 09:07:33;;;;;;;;;;;3.50;99.90;;;;;;4180149;28;20364;-53
2022/02/11 09:09:38;;;;;;;;;;;3.50;99.90;;;;;;4177497;28;20408;-53
2022/02/11 09:11:40;;;;;;;;;;;3.70;99.90;;;;;;4178000;28;19982;-53
2022/02/11 09:13:42;;;;;;;;;;;4.00;99.90;;;;;;4162936;28;19933;-54
2022/02/11 09:15:45;;;;;;;;;;;4.20;99.90;;;;;;4169092;28;19932;-54
2022/02/11 09:17:50;;;;;;;;;;;4.40;99.90;;;;;;4167681;28;20427;-55
2022/02/11 09:19:52;;;;;;;;;;;4.50;99.90;;;;;;4163253;28;19936;-54
2022/02/11 09:21:54;;;;;;;;;;;4.50;99.90;;;;;;4169854;28;19971;-55
2022/02/11 09:23:56;;;;;;;;;;;4.60;99.90;;;;;;4168307;28;19968;-55
2022/02/11 09:25:58;;;;;;;;;;;4.70;99.90;;;;;;4166240;28;19935;-54
2022/02/11 09:28:00;;;;;;;;;;;4.80;99.90;;;;;;4175586;28;20341;-55
2022/02/11 09:30:02;;;;;;;;;;;4.90;99.90;;;;;;4176975;28;19929;-54
2022/02/11 09:32:06;;;;;;;;;;;5.00;99.90;;;;;;4168737;28;19925;-54
2022/02/11 09:34:12;;;;;;;;;;;5.00;99.90;;;;;;4175108;28;19960;-54
2022/02/11 09:36:14;;;;;;;;;;;5.00;99.90;;;;;;4177589;28;19948;-54
2022/02/11 09:38:18;;;;;;;;;;;5.30;99.90;;;;;;4178789;28;19933;-54
2022/02/11 09:40:20;;;;;;;;;;;5.40;99.90;;;;;;4171532;28;19929;-53
2022/02/11 09:42:22;;;;;;;;;;;5.40;99.90;;;;;;4166709;28;19929;-55
2022/02/11 09:44:25;;;;;;;;;;;5.50;99.90;;;;;;4171024;28;19935;-54
2022/02/11 09:46:31;;;;;;;;;;;5.60;99.90;;;;;;4173200;28;19928;-54
2022/02/11 09:48:32;;;;;;;;;;;5.80;99.90;;;;;;4167922;28;19956;-54
2022/02/11 09:50:33;;;;;;;;;;;6.10;99.90;;;;;;4174663;28;19920;-54
2022/02/11 09:52:47;;;;;;;;;;;6.10;99.90;;;;;;4168307;28;19929;-54
2022/02/11 09:55:31;;;;;;;;;;;6.20;99.90;;;;;;4165535;28;19935;-54
2022/02/11 09:57:13;;;;;;;;;;;6.40;99.90;;;;;;4162479;28;19932;-54
2022/02/11 09:59:15;;;;;;;;;;;6.60;99.90;;;;;;4175131;28;19928;-54
2022/02/11 10:01:21;;;;;;;;;;;6.60;99.90;;;;;;4170663;28;20277;-54
2022/02/11 10:03:31;;;;;;;;;;;6.80;99.90;;;;;;4179181;28;20583;-53
2022/02/11 10:05:34;;;;;;;;;;;7.10;99.90;;;;;;4177321;28;19932;-54
2022/02/11 10:07:44;;;;;;;;;;;7.30;99.90;;;;;;4171365;28;19974;-54
2022/02/11 10:09:46;;;;;;;;;;;7.50;99.90;;;;;;4173338;28;19925;-54
2022/02/11 10:11:54;;;;;;;;;;;7.60;99.90;;;;;;4167504;28;19952;-54
2022/02/11 10:13:56;;;;;;;;;;;7.60;99.90;;;;;;4168742;28;19979;-55
2022/02/11 10:15:59;;;;;;;;;;;7.60;99.90;;;;;;4178667;28;20002;-54
2022/02/11 10:18:01;;;;;;;;;;;7.70;99.90;;;;;;4176250;28;19933;-54
2022/02/11 10:20:02;;;;;;;;;;;8.00;99.90;;;;;;4173736;28;19931;-54
2022/02/11 10:22:08;;;;;;;;;;;8.20;99.90;;;;;;4177290;28;19994;-54
2022/02/11 10:24:25;;;;;;;;;;;8.40;99.90;;;;;;4175588;28;19924;-54
2022/02/11 10:26:27;;;;;;;;;;;8.70;99.90;;;;;;4171119;28;19935;-54
2022/02/11 10:28:29;;;;;;;;;;;8.80;99.90;;;;;;4176043;28;19975;-53
2022/02/11 10:30:31;;;;;;;;;;;9.10;99.90;;;;;;4178536;28;19937;-53
2022/02/11 10:32:46;;;;;;;;;;;9.50;99.90;;;;;;4175197;28;20576;-54
2022/02/11 10:34:52;;;;;;;;;;;9.60;99.90;;;;;;4177332;28;20381;-54
2022/02/11 10:36:54;;;;;;;;;;;9.50;99.90;;;;;;4177510;28;19928;-54
2022/02/11 10:39:05;;;;;;;;;;;9.30;99.90;;;;;;4176339;28;19925;-55
2022/02/11 10:41:07;;;;;;;;;;;9.30;99.90;;;;;;4176857;28;19937;-55
2022/02/11 10:43:22;;;;;;;;;;;9.70;99.90;;;;;;4177858;28;20292;-54
2022/02/11 10:45:28;;;;;;;;;;;9.80;99.90;;;;;;4173431;28;19929;-54
2022/02/11 10:47:32;;;;;;;;;;;10.00;99.90;;;;;;4167319;28;19959;-55
2022/02/11 10:49:41;;;;;;;;;;;10.60;99.90;;;;;;4170856;28;19933;-54
2022/02/11 10:51:43;;;;;;;;;;;10.00;99.90;;;;;;4164640;28;19925;-54
2022/02/11 10:53:44;;;;;;;;;;;10.30;99.90;;;;;;4165802;28;19990;-54
2022/02/11 10:55:47;;;;;;;;;;;9.70;99.90;;;;;;4183874;28;20287;-54
2022/02/11 10:57:59;;;;;;;;;;;10.10;99.90;;;;;;4171032;28;19979;-54
2022/02/11 11:00:03;;;;;;;;;;;10.50;99.90;;;;;;4165570;28;19952;-54
2022/02/11 11:02:10;;;;;;;;;;;10.50;99.90;;;;;;4175809;28;19935;-55
2022/02/11 11:04:11;;;;;;;;;;;10.40;99.90;;;;;;4168161;28;19959;-54
2022/02/11 11:06:14;;;;;;;;;;;10.80;99.90;;;;;;4171947;28;20657;-54
2022/02/11 11:08:16;;;;;;;;;;;11.10;99.90;;;;;;4168247;28;19948;-55
2022/02/11 11:10:18;;;;;;;;;;;11.30;99.90;;;;;;4167521;28;20011;-54
2022/02/11 11:12:22;;;;;;;;;;;11.60;99.90;;;;;;4177615;28;19952;-55
2022/02/11 11:14:24;;;;;;;;;;;11.50;99.90;;;;;;4172178;28;19925;-56
2022/02/11 11:16:27;;;;;;;;;;;11.40;99.90;;;;;;4162022;28;19979;-55
2022/02/11 11:18:30;;;;;;;;;;;10.90;99.90;;;;;;4160779;28;19929;-55
2022/02/11 11:20:35;;;;;;;;;;;10.50;99.90;;;;;;4169436;28;19948;-54
2022/02/11 11:22:42;;;;;;;;;;;11.20;99.90;;;;;;4169739;28;19937;-55
2022/02/11 11:24:51;;;;;;;;;;;11.30;99.90;;;;;;4167700;28;20303;-56
2022/02/11 11:26:55;;;;;;;;;;;11.30;99.90;;;;;;4170774;28;19924;-55
2022/02/11 11:29:03;;;;;;;;;;;11.80;99.90;;;;;;4173482;28;20325;-55
2022/02/11 11:31:12;;;;;;;;;;;12.00;99.90;;;;;;4174507;28;19928;-54
2022/02/11 11:33:15;;;;;;;;;;;12.20;99.90;;;;;;4170960;28;19932;-55
2022/02/11 11:35:23;;;;;;;;;;;12.60;99.90;;;;;;4169680;28;19979;-56
2022/02/11 11:37:25;;;;;;;;;;;13.20;99.90;;;;;;4176057;28;19955;-55
2022/02/11 11:39:28;;;;;;;;;;;13.10;99.90;;;;;;4173782;28;20266;-55
2022/02/11 11:41:31;;;;;;;;;;;13.30;99.90;;;;;;4165894;28;20648;-55
2022/02/11 11:43:36;;;;;;;;;;;12.80;99.90;;;;;;4171267;28;20227;-55
2022/02/11 11:45:42;;;;;;;;;;;13.10;99.90;;;;;;4173114;28;20593;-56
2022/02/11 11:47:44;;;;;;;;;;;13.40;99.90;;;;;;4171249;28;19925;-56
2022/02/11 11:49:49;;;;;;;;;;;13.30;99.90;;;;;;4176109;28;19925;-55
2022/02/11 11:51:52;;;;;;;;;;;13.10;99.90;;;;;;4169567;28;19940;-54
2022/02/11 11:54:12;;;;;;;;;;;13.20;99.90;;;;;;4168903;28;19932;-55
2022/02/11 11:56:32;;;;;;;;;;;13.70;99.90;;;;;;4173574;28;19925;-53
2022/02/11 11:58:45;;;;;;;;;;;13.90;99.90;;;;;;4173307;28;19972;-55
2022/02/11 12:00:47;;;;;;;;;;;14.00;99.90;;;;;;4169963;28;19929;-55
2022/02/11 12:02:50;;;;;;;;;;;13.60;99.90;;;;;;4176922;28;19932;-55
2022/02/11 12:04:56;;;;;;;;;;;13.70;99.90;;;;;;4174314;28;19933;-57
2022/02/11 12:06:59;;;;;;;;;;;14.00;99.90;;;;;;4175645;28;20293;-56
2022/02/11 12:09:02;;;;;;;;;;;13.90;99.20;;;;;;4162999;28;19929;-56
2022/02/11 12:11:04;;;;;;;;;;;14.00;99.90;;;;;;4172383;28;19925;-55
2022/02/11 12:13:06;;;;;;;;;;;14.40;99.90;;;;;;4165536;28;19928;-55
2022/02/11 12:15:11;;;;;;;;;;;13.90;99.90;;;;;;4174924;28;19982;-56
2022/02/11 12:17:14;;;;;;;;;;;13.70;99.90;;;;;;4176790;28;19954;-55
2022/02/11 12:19:16;;;;;;;;;;;13.80;99.90;;;;;;4177673;28;19982;-56
2022/02/11 12:21:19;;;;;;;;;;;14.20;99.90;;;;;;4167545;28;19931;-55
2022/02/11 12:28:02;;;;;;;;;;;15.00;99.90;;;;;;4169909;28;19933;-55
2022/02/11 12:30:07;;;;;;;;;;;15.20;98.50;;;;;;4172442;28;19929;-56
2022/02/11 12:32:09;;;;;;;;;;;14.90;99.10;;;;;;4170686;28;19948;-56
2022/02/11 12:34:12;;;;;;;;;;;14.70;99.60;;;;;;4165615;28;19925;-55
2022/02/11 12:36:14;;;;;;;;;;;14.10;98.30;;;;;;4170031;28;19925;-56
2022/02/11 12:38:16;;;;;;;;;;;14.10;99.90;;;;;;4172185;28;19975;-55
2022/02/11 12:40:24;;;;;;;;;;;14.00;99.50;;;;;;4166990;28;19929;-55
2022/02/11 12:42:27;;;;;;;;;;;13.80;99.20;;;;;;4172092;28;20412;-55
2022/02/11 12:44:30;;;;;;;;;;;14.20;97.70;;;;;;4170859;28;19971;-56
2022/02/11 12:46:32;;;;;;;;;;;14.60;98.20;;;;;;4165600;28;19933;-54
2022/02/11 12:48:34;;;;;;;;;;;14.80;99.20;;;;;;4174670;28;19975;-55
2022/02/11 12:50:40;;;;;;;;;;;15.50;97.60;;;;;;4167066;28;20562;-55
2022/02/11 12:52:42;;;;;;;;;;;15.70;97.20;;;;;;4171500;28;19933;-55
2022/02/11 12:54:56;;;;;;;;;;;15.50;96.10;;;;;;4175232;28;19982;-54
2022/02/11 12:57:01;;;;;;;;;;;15.30;95.50;;;;;;4167455;28;19925;-54
2022/02/11 12:59:06;;;;;;;;;;;15.30;94.90;;;;;;4172270;28;19925;-54
2022/02/11 13:01:08;;;;;;;;;;;14.80;94.70;;;;;;4175413;28;19928;-52
2022/02/11 13:03:12;;;;;;;;;;;14.60;96.70;;;;;;4168645;28;19968;-53
2022/02/11 13:05:20;;;;;;;;;;;13.70;96.90;;;;;;4173813;28;19931;-54
2022/02/11 13:07:22;;;;;;;;;;;13.90;99.10;;;;;;4174279;28;20401;-54
2022/02/11 13:09:24;;;;;;;;;;;13.90;97.50;;;;;;4171148;28;19947;-54
2022/02/11 13:11:43;;;;;;;;;;;13.90;98.00;;;;;;4167898;28;19951;-54
2022/02/11 13:13:45;;;;;;;;;;;14.30;96.50;;;;;;4170186;28;19929;-54
2022/02/11 13:15:47;;;;;;;;;;;14.70;95.70;;;;;;4170521;28;19933;-53
2022/02/11 13:17:49;;;;;;;;;;;14.50;98.10;;;;;;4171879;28;19928;-53
2022/02/11 13:19:51;;;;;;;;;;;14.80;96.90;;;;;;4175153;28;19925;-52
2022/02/11 13:21:53;;;;;;;;;;;14.50;96.90;;;;;;4168876;28;19938;-54
2022/02/11 13:23:55;;;;;;;;;;;14.30;96.20;;;;;;4179424;28;19925;-52
2022/02/11 13:25:57;;;;;;;;;;;14.20;96.00;;;;;;4175647;28;19978;-53
2022/02/11 13:28:06;;;;;;;;;;;14.70;97.80;;;;;;4172998;28;19932;-53
2022/02/11 13:30:09;;;;;;;;;;;15.00;96.50;;;;;;4166014;28;19932;-54
2022/02/11 13:32:13;;;;;;;;;;;14.90;97.10;;;;;;4171855;28;19933;-53
2022/02/11 13:34:15;;;;;;;;;;;15.00;95.00;;;;;;4174984;28;19943;-53
2022/02/11 13:36:25;;;;;;;;;;;15.00;96.80;;;;;;4179052;28;19929;-53
2022/02/11 13:38:28;;;;;;;;;;;14.60;95.40;;;;;;4173346;28;19929;-53
2022/02/11 13:40:30;;;;;;;;;;;14.00;95.90;;;;;;4164806;28;19991;-53
2022/02/11 13:42:32;;;;;;;;;;;13.50;96.30;;;;;;4179024;28;19932;-53
2022/02/11 13:44:34;;;;;;;;;;;13.20;96.70;;;;;;4170666;28;20492;-52
2022/02/11 13:46:40;;;;;;;;;;;13.20;96.90;;;;;;4165023;28;19929;-52
2022/02/11 13:48:53;;;;;;;;;;;13.40;96.60;;;;;;4180883;28;20434;-53
2022/02/11 13:50:55;;;;;;;;;;;13.30;95.90;;;;;;4173606;28;19933;-53
2022/02/11 13:53:03;;;;;;;;;;;13.30;96.30;;;;;;4177537;28;19928;-52
2022/02/11 13:55:09;;;;;;;;;;;13.10;96.40;;;;;;4178686;28;19929;-53
2022/02/11 13:57:21;;;;;;;;;;;13.00;96.90;;;;;;4175609;28;19932;-53
2022/02/11 13:59:27;;;;;;;;;;;13.10;96.80;;;;;;4177359;28;19929;-52
2022/02/11 14:01:32;;;;;;;;;;;12.80;96.80;;;;;;4178538;28;19925;-52
2022/02/11 14:03:34;;;;;;;;;;;12.80;97.10;;;;;;4176987;28;19929;-53
2022/02/11 14:05:43;;;;;;;;;;;12.70;97.10;;;;;;4178387;28;20312;-52
2022/02/11 14:07:53;;;;;;;;;;;12.60;97.00;;;;;;4171301;28;19956;-52
2022/02/11 14:09:55;;;;;;;;;;;12.50;97.50;;;;;;4174957;28;19929;-51
2022/02/11 14:11:57;;;;;;;;;;;12.40;97.40;;;;;;4176756;28;20392;-52
2022/02/11 14:14:13;;;;;;;;;;;12.60;97.20;;;;;;4162309;28;19933;-52
2022/02/11 14:16:18;;;;;;;;;;;12.50;97.10;;;;;;4176671;28;19970;-53
2022/02/11 14:18:20;;;;;;;;;;;12.60;97.70;;;;;;4175098;28;19931;-53
2022/02/11 14:20:22;;;;;;;;;;;12.80;97.30;;;;;;4178487;28;19939;-53
2022/02/11 14:22:24;;;;;;;;;;;12.90;97.00;;;;;;4175428;28;20286;-52
2022/02/11 14:24:26;;;;;;;;;;;12.90;96.80;;;;;;4174744;28;19933;-52
2022/02/11 14:26:30;;;;;;;;;;;12.70;96.80;;;;;;4178551;28;20305;-53
2022/02/11 14:28:34;;;;;;;;;;;12.20;96.90;;;;;;4172871;28;20285;-51
2022/02/11 14:30:40;;;;;;;;;;;12.10;97.40;;;;;;4175772;28;19925;-53
2022/02/11 14:32:42;;;;;;;;;;;11.90;97.60;;;;;;4177965;28;19955;-53
2022/02/11 14:34:43;;;;;;;;;;;11.60;97.50;;;;;;4168017;28;19929;-52
2022/02/11 14:36:45;;;;;;;;;;;11.50;97.90;;;;;;4169552;28;19951;-51
2022/02/11 14:38:47;;;;;;;;;;;11.40;98.10;;;;;;4163793;28;19929;-53
2022/02/11 14:43:10;;;;;;;;;;;11.30;98.20;;;;;;4174974;28;19925;-52
2022/02/11 14:45:12;;;;;;;;;;;11.30;98.40;;;;;;4161390;28;19929;-53
2022/02/11 14:47:14;;;;;;;;;;;11.10;98.70;;;;;;4171042;28;19929;-51
2022/02/11 14:49:17;;;;;;;;;;;11.00;98.60;;;;;;4167870;28;19991;-52
2022/02/11 14:51:19;;;;;;;;;;;11.00;98.90;;;;;;4165636;28;19940;-52
2022/02/11 14:53:21;;;;;;;;;;;11.00;99.10;;;;;;4171457;28;19925;-52
2022/02/11 14:55:23;;;;;;;;;;;11.00;99.20;;;;;;4167946;28;19990;-52
2022/02/11 14:57:25;;;;;;;;;;;11.00;99.20;;;;;;4178602;28;19982;-53
2022/02/11 14:59:27;;;;;;;;;;;11.10;99.10;;;;;;4174241;28;19936;-51
2022/02/11 15:01:29;;;;;;;;;;;11.10;99.10;;;;;;4168424;28;19925;-52
2022/02/11 15:03:32;;;;;;;;;;;11.20;98.70;;;;;;4169970;28;19929;-53
2022/02/11 15:05:34;;;;;;;;;;;11.20;98.70;;;;;;4174053;28;20323;-51
2022/02/11 15:07:38;;;;;;;;;;;11.20;98.80;;;;;;4168185;28;19929;-52
2022/02/11 15:09:40;;;;;;;;;;;11.20;98.80;;;;;;4171506;28;19925;-52
2022/02/11 15:11:42;;;;;;;;;;;11.20;98.80;;;;;;4174520;28;19975;-53
2022/02/11 15:13:44;;;;;;;;;;;11.20;98.80;;;;;;4174646;28;19929;-52
2022/02/11 15:15:46;;;;;;;;;;;11.20;98.60;;;;;;4173808;28;19929;-52
2022/02/11 15:17:48;;;;;;;;;;;11.20;98.70;;;;;;4170163;28;19940;-52
2022/02/11 15:19:50;;;;;;;;;;;11.30;98.80;;;;;;4176496;28;20292;-52
2022/02/11 15:21:52;;;;;;;;;;;11.30;98.30;;;;;;4176192;28;19955;-53
2022/02/11 15:23:54;;;;;;;;;;;11.20;98.20;;;;;;4174529;28;19933;-51
2022/02/11 15:25:56;;;;;;;;;;;11.20;98.00;;;;;;4170715;28;19975;-52
2022/02/11 15:27:58;;;;;;;;;;;11.10;98.10;;;;;;4175357;28;19925;-52
2022/02/11 15:30:00;;;;;;;;;;;11.10;98.00;;;;;;4172006;28;19978;-52
2022/02/11 15:32:03;;;;;;;;;;;11.10;98.10;;;;;;4173001;28;19928;-51
2022/02/11 15:34:05;;;;;;;;;;;11.00;98.00;;;;;;4177436;28;19929;-52
2022/02/11 15:36:08;;;;;;;;;;;10.90;97.90;;;;;;4172607;28;19928;-52
2022/02/11 15:38:10;;;;;;;;;;;10.80;98.00;;;;;;4177106;28;19935;-52
2022/02/11 15:40:12;;;;;;;;;;;10.80;98.20;;;;;;4177084;28;19929;-54
2022/02/11 15:42:13;;;;;;;;;;;10.80;98.30;;;;;;4175892;28;20411;-56
2022/02/11 15:44:15;;;;;;;;;;;10.70;98.70;;;;;;4174993;28;20312;-54
2022/02/11 15:46:17;;;;;;;;;;;10.70;98.50;;;;;;4175901;28;19932;-55
2022/02/11 15:48:19;;;;;;;;;;;10.60;98.40;;;;;;4173296;28;19925;-55
2022/02/11 15:50:21;;;;;;;;;;;10.50;98.50;;;;;;4176930;28;19951;-55
2022/02/11 15:52:23;;;;;;;;;;;10.40;98.60;;;;;;4175304;28;20450;-54
2022/02/11 15:54:25;;;;;;;;;;;10.40;98.90;;;;;;4175547;28;19932;-54
2022/02/11 15:56:27;;;;;;;;;;;10.30;99.10;;;;;;4177024;28;19929;-55
2022/02/11 15:58:29;;;;;;;;;;;10.20;99.20;;;;;;4175170;28;19929;-55
2022/02/11 16:00:33;;;;;;;;;;;10.20;99.20;;;;;;4173082;28;19925;-55
2022/02/11 16:02:36;;;;;;;;;;;10.10;99.20;;;;;;4177349;28;19986;-53